Shanghai Hongqiao International Airport
ZSSS : now visible

Airfield :











YOU CAN JOIN US ON...

 
LOGIN :

Register | Disclaimer

   EN    FR    IT 

 









Legend :    VFR   Marginal VFR   IFR   Intensive IFR   Very Intensive IFR
Visi :
Ceiling :
>= 8 km
>= 3000ft
5 to 8 km
1000 to 3000 ft
1500m to 5 km
500 to 1000 ft
800 to 1500m
200 to 500 ft
< 800m
< 200 ft
Symbols :   Thunderstorms  Fog  Heavy snow  Heavy precipitations  Wind > 20 kt






- Airport Elevation : 10 ft
- IATA code : SHA


ZSSS - Shanghai Hongqiao International

CURRENT METAR :
  • 190400Z 15004MPS CAVOK 11/M01 Q1028 NOSIG

EXPIRED METARs :
  • 190330Z 16004MPS 130V190 CAVOK 11/M01 Q1028 NOSIG
  • 190300Z 17005MPS CAVOK 10/M02 Q1029 NOSIG
  • 190230Z 17006MPS CAVOK 10/M01 Q1029 NOSIG
  • 190200Z 14006MPS CAVOK 09/M01 Q1029 NOSIG
  • 190130Z 15005MPS CAVOK 09/M00 Q1029 NOSIG

TAF TAF ZSSS
Valid from the 19 at 00:00 until the 20 at 00:00 UTC


182107Z 1900/1924 13004MPS 6000 NSC TX12/1906Z TN05/1900Z



MET'MAP, your aeronautical weather chart ! - Copyright ORBIFLY December 2007 - Disclaimer

ORBIFLY MET'MAP TEAM :

Programming & Development : Alexandra Zaïnal
Concept & original design : Baudouin d'Aumeries
Assistance for programming : Marc-Olivier Méhu
Technical & hardware support : Manuel Goepfert

Contact : metmap@orbifly.com




SOURCES & CREDITS :

   NOAA       Earth
Advisory